createdAt,value
2023-05-20T00:03:17.753Z,22
2023-05-20T00:13:17.772Z,22.2
2023-05-20T00:23:16.778Z,23.6
2023-05-20T00:33:16.513Z,22.1
2023-05-20T00:43:16.242Z,21.8
2023-05-20T00:53:16.336Z,23.8
2023-05-20T01:03:17.866Z,22.1
2023-05-20T01:13:17.453Z,22
2023-05-20T01:23:17.232Z,22.4
2023-05-20T01:33:17.321Z,21.8
2023-05-20T01:43:17.666Z,21.8
2023-05-20T01:53:16.753Z,21.8
2023-05-20T02:03:16.754Z,23.7
2023-05-20T02:13:16.461Z,21.7
2023-05-20T02:23:16.352Z,22
2023-05-20T02:33:16.532Z,21.8
2023-05-20T02:43:16.222Z,22.2
2023-05-20T02:53:16.134Z,21.6
2023-05-20T03:03:05.859Z,22.1
2023-05-20T03:13:06.923Z,23.6
2023-05-20T03:23:06.346Z,21.9
2023-05-20T03:33:08.354Z,25.8
2023-05-20T03:43:15.307Z,25.6
2023-05-20T03:53:25.290Z,27.2
2023-05-20T04:03:41.040Z,26.3
2023-05-20T04:13:57.933Z,27.6
2023-05-20T04:24:15.058Z,27.6
2023-05-20T04:34:32.754Z,27.7
2023-05-20T04:44:49.509Z,28.4
2023-05-20T04:55:07.409Z,28.1
2023-05-20T05:05:22.924Z,28.3
2023-05-20T05:15:39.077Z,28.3
2023-05-20T05:25:56.404Z,28.8
2023-05-20T05:36:12.512Z,25.1
2023-05-20T05:46:30.782Z,29.1
2023-05-20T05:56:47.006Z,29.6
2023-05-20T06:07:04.246Z,29.5
2023-05-20T06:17:22.030Z,30.1
2023-05-20T06:27:39.535Z,30.9
2023-05-20T06:37:56.236Z,30
2023-05-20T06:48:14.397Z,31.6
2023-05-20T06:58:33.037Z,31.1
2023-05-20T07:08:49.096Z,30.2
2023-05-20T07:19:04.100Z,30.5
2023-05-20T07:29:19.026Z,30.8
2023-05-20T07:39:33.970Z,30.7
2023-05-20T07:49:48.746Z,31.4
2023-05-20T08:00:03.554Z,31.5
2023-05-20T08:10:25.668Z,31.6
2023-05-20T08:20:37.516Z,31.2
2023-05-20T08:30:55.368Z,30.5
2023-05-20T08:41:15.266Z,31.5
2023-05-20T08:51:34.732Z,31.9
2023-05-20T09:03:13.704Z,31.1
2023-05-20T09:13:32.766Z,30.5
2023-05-20T09:23:48.957Z,31.1
2023-05-20T09:34:09.429Z,31.6
2023-05-20T09:44:27.978Z,31.3
2023-05-20T09:54:46.286Z,31.4
2023-05-20T10:05:06.393Z,31.9
2023-05-20T10:15:26.004Z,31.8
2023-05-20T10:25:46.091Z,31.4
2023-05-20T10:36:05.954Z,31.2
2023-05-20T10:46:35.304Z,31.2
2023-05-20T10:56:45.337Z,31
2023-05-20T11:07:04.876Z,31.6
2023-05-20T11:17:23.897Z,31.1
2023-05-20T11:27:40.716Z,31.2
2023-05-20T11:37:55.518Z,30.9
2023-05-20T11:48:08.585Z,30.9
2023-05-20T11:58:22.686Z,30.8
2023-05-20T12:08:32.640Z,29.7
2023-05-20T12:18:38.107Z,25.1
2023-05-20T12:28:39.209Z,27.2
2023-05-20T12:38:38.495Z,24.8
2023-05-20T12:48:38.152Z,25.1
2023-05-20T12:58:37.238Z,25.6
2023-05-20T13:08:37.226Z,26.7
2023-05-20T13:18:41.251Z,27.3
2023-05-20T13:28:46.093Z,28.4
2023-05-20T13:38:51.082Z,27.9
2023-05-20T13:48:51.649Z,25.3
2023-05-20T13:58:51.934Z,25.9
2023-05-20T14:08:53.989Z,25.7
2023-05-20T14:18:59.838Z,26.7
2023-05-20T14:29:11.889Z,29.8
2023-05-20T14:39:16.200Z,27
2023-05-20T14:49:22.933Z,29.9
2023-05-20T14:59:32.357Z,26.9
2023-05-20T15:03:11.212Z,30.2
2023-05-20T15:13:19.987Z,28.9
2023-05-20T15:23:22.942Z,26.9
2023-05-20T15:33:23.942Z,24.8
2023-05-20T15:43:23.872Z,24.8
2023-05-20T15:53:23.284Z,25.1
2023-05-20T16:03:23.353Z,25
2023-05-20T16:13:23.700Z,24.9
2023-05-20T16:23:24.386Z,24.7
2023-05-20T16:33:26.269Z,25.1
2023-05-20T16:43:27.824Z,24.8
2023-05-20T16:53:29.572Z,24.6
2023-05-20T17:03:31.044Z,24.8
2023-05-20T17:13:32.128Z,26
2023-05-20T17:23:32.075Z,24.3
2023-05-20T17:33:32.426Z,24.3
2023-05-20T17:43:33.216Z,24.4
2023-05-20T17:53:33.421Z,25.9
2023-05-20T18:03:33.950Z,24.4
2023-05-20T18:13:34.043Z,24.3
2023-05-20T18:23:33.892Z,24.2
2023-05-20T18:33:33.607Z,24.1
2023-05-20T18:43:33.793Z,24.4
2023-05-20T18:53:33.834Z,24.2
2023-05-20T19:03:34.033Z,25.7
2023-05-20T19:13:33.916Z,24.3
2023-05-20T19:23:33.522Z,24.2
2023-05-20T19:33:33.315Z,24
2023-05-20T19:43:33.717Z,24.4
2023-05-20T19:53:33.228Z,24.3
2023-05-20T20:03:33.043Z,23.9
2023-05-20T20:13:34.134Z,25.9
2023-05-20T20:23:34.372Z,25.8
2023-05-20T20:33:34.078Z,25.4
2023-05-20T20:43:33.487Z,23.8
2023-05-20T20:53:33.622Z,24
2023-05-20T21:03:06.949Z,23.9
2023-05-20T21:13:07.508Z,25.8
2023-05-20T21:23:07.446Z,24.2
2023-05-20T21:33:07.333Z,23.7
2023-05-20T21:43:07.667Z,25.8
2023-05-20T21:53:07.540Z,25.4
2023-05-20T22:03:07.961Z,23.6
2023-05-20T22:13:08.675Z,23.6
2023-05-20T22:23:09.341Z,23.6
2023-05-20T22:33:10.115Z,23.6
2023-05-20T22:43:11.442Z,23.5
2023-05-20T22:53:12.294Z,23.6
2023-05-20T23:03:12.625Z,23.2
2023-05-20T23:13:11.967Z,23.6
2023-05-20T23:23:12.049Z,23.5
2023-05-20T23:33:11.920Z,25.1
2023-05-20T23:43:11.569Z,23.9
2023-05-20T23:53:12.181Z,24.9
